createdAt,value
2023-11-04T00:00:23.330Z,6.81
2023-11-04T00:02:27.393Z,6.70
2023-11-04T00:03:47.697Z,6.75
2023-11-04T00:05:38.533Z,6.72
2023-11-04T00:07:01.040Z,6.69
2023-11-04T00:08:44.593Z,6.65
2023-11-04T00:10:16.827Z,6.62
2023-11-04T00:12:00.913Z,6.57
2023-11-04T00:13:44.677Z,6.57
2023-11-04T00:15:38.414Z,6.52
2023-11-04T00:17:06.480Z,6.53
2023-11-04T00:18:38.641Z,6.51
2023-11-04T00:20:22.776Z,6.50
2023-11-04T00:21:43.496Z,6.49
2023-11-04T00:23:15.687Z,6.47
2023-11-04T00:25:01.483Z,6.47
2023-11-04T00:26:45.012Z,6.46
2023-11-04T00:28:26.299Z,6.43
2023-11-04T00:30:10.598Z,6.45
2023-11-04T00:31:42.710Z,6.45
2023-11-04T00:33:14.720Z,6.40
2023-11-04T00:34:37.565Z,6.42
2023-11-04T00:36:10.071Z,6.38
2023-11-04T00:37:45.348Z,6.36
2023-11-04T00:39:19.773Z,6.31
2023-11-04T00:40:54.238Z,6.29
2023-11-04T00:42:27.022Z,6.28
2023-11-04T00:44:01.861Z,6.25
2023-11-04T00:45:29.655Z,6.22
2023-11-04T00:47:09.244Z,6.22
2023-11-04T00:48:33.715Z,6.23
2023-11-04T00:50:14.751Z,6.23
2023-11-04T00:52:03.943Z,6.22
2023-11-04T00:53:47.859Z,6.22
2023-11-04T00:55:26.904Z,6.19
2023-11-04T00:57:10.374Z,6.17
2023-11-04T00:58:42.119Z,6.17
2023-11-04T01:00:25.996Z,6.17
2023-11-04T01:01:57.796Z,6.21
2023-11-04T01:03:32.197Z,6.23
2023-11-04T01:05:16.236Z,6.27
2023-11-04T01:07:00.010Z,6.29
2023-11-04T01:08:44.622Z,6.28
2023-11-04T01:10:13.545Z,6.28
2023-11-04T01:11:47.635Z,6.28
2023-11-04T01:13:39.627Z,6.22
2023-11-04T01:15:11.868Z,6.34
2023-11-04T01:16:34.605Z,6.35
2023-11-04T01:17:59.888Z,6.36
2023-11-04T01:19:25.278Z,6.36
2023-11-04T01:20:57.656Z,6.37
2023-11-04T01:22:17.698Z,6.38
2023-11-04T01:23:51.943Z,6.38
2023-11-04T01:25:14.458Z,6.41
2023-11-04T01:26:46.586Z,6.41
2023-11-04T01:28:09.270Z,6.41
2023-11-04T01:29:52.802Z,6.41
2023-11-04T01:31:15.311Z,6.43
2023-11-04T01:32:59.246Z,6.46
2023-11-04T01:34:31.313Z,6.49
2023-11-04T01:35:54.991Z,6.50
2023-11-04T01:37:27.307Z,6.41
2023-11-04T01:39:02.236Z,6.52
2023-11-04T01:40:26.933Z,6.53
2023-11-04T01:41:59.006Z,6.47
2023-11-04T01:43:42.484Z,6.52
2023-11-04T01:45:17.388Z,6.51
2023-11-04T01:47:01.091Z,6.52
2023-11-04T01:48:23.669Z,6.52
2023-11-04T01:49:55.845Z,6.53
2023-11-04T01:51:30.294Z,6.52
2023-11-04T01:53:00.448Z,6.48
2023-11-04T01:54:26.054Z,6.47
2023-11-04T01:55:46.403Z,6.51
2023-11-04T01:57:18.640Z,6.53
2023-11-04T01:58:52.543Z,6.52
2023-11-04T02:00:15.333Z,6.57
2023-11-04T02:01:49.586Z,6.53
2023-11-04T02:03:32.999Z,6.53
2023-11-04T02:04:56.140Z,6.53
2023-11-04T02:06:40.106Z,6.54
2023-11-04T02:08:15.262Z,6.55
2023-11-04T02:09:35.545Z,6.57
2023-11-04T02:11:24.569Z,6.56
2023-11-04T02:12:56.284Z,6.57
2023-11-04T02:14:39.890Z,6.57
2023-11-04T02:16:12.104Z,6.56
2023-11-04T02:17:34.753Z,6.57
2023-11-04T02:18:59.442Z,6.59
2023-11-04T02:20:43.140Z,6.58
2023-11-04T02:22:18.274Z,6.55
2023-11-04T02:24:01.714Z,6.54
2023-11-04T02:25:24.707Z,6.55
2023-11-04T02:26:54.452Z,6.56
2023-11-04T02:28:28.906Z,6.54
2023-11-04T02:30:00.899Z,6.58
2023-11-04T02:31:34.324Z,6.60
2023-11-04T02:33:23.035Z,6.61
2023-11-04T02:35:06.457Z,6.61
2023-11-04T02:36:38.846Z,6.62
2023-11-04T02:38:13.043Z,6.64
2023-11-04T02:39:36.069Z,6.65
2023-11-04T02:40:59.176Z,6.66
2023-11-04T02:42:42.762Z,6.69
2023-11-04T02:44:18.524Z,6.70
2023-11-04T02:45:40.991Z,6.73
2023-11-04T02:47:25.087Z,6.72
2023-11-04T02:49:11.035Z,6.73
2023-11-04T02:50:42.620Z,6.73
2023-11-04T02:52:22.234Z,6.73
2023-11-04T02:54:06.049Z,6.75
2023-11-04T02:55:46.422Z,6.77
2023-11-04T02:57:19.568Z,6.71
2023-11-04T02:58:42.460Z,6.81
2023-11-04T03:00:18.031Z,6.80
2023-11-04T03:01:38.320Z,6.81
2023-11-04T03:03:10.862Z,6.78
2023-11-04T03:04:55.149Z,6.78
2023-11-04T03:06:27.538Z,6.79
2023-11-04T03:08:14.098Z,6.81
2023-11-04T03:09:53.685Z,6.82
2023-11-04T03:11:23.805Z,6.85
2023-11-04T03:12:45.041Z,6.89
2023-11-04T03:14:29.133Z,6.89
2023-11-04T03:15:59.169Z,6.88
2023-11-04T03:17:31.340Z,6.88
2023-11-04T03:19:16.866Z,6.87
2023-11-04T03:20:45.144Z,6.90
2023-11-04T03:22:15.024Z,6.93
2023-11-04T03:23:39.766Z,6.94
2023-11-04T03:25:19.059Z,6.93
2023-11-04T03:27:07.674Z,7.00
2023-11-04T03:28:39.384Z,6.97
2023-11-04T03:30:11.981Z,6.97
2023-11-04T03:31:46.573Z,6.97
2023-11-04T03:33:14.806Z,6.98
2023-11-04T03:34:37.201Z,6.98
2023-11-04T03:36:17.161Z,6.99
2023-11-04T03:37:48.930Z,6.98
2023-11-04T03:39:32.990Z,6.98
2023-11-04T03:41:00.794Z,7.02
2023-11-04T03:42:23.346Z,7.04
2023-11-04T03:44:03.348Z,7.02
2023-11-04T03:45:24.183Z,7.03
2023-11-04T03:46:56.361Z,7.02
2023-11-04T03:48:16.861Z,7.05
2023-11-04T03:49:51.087Z,7.07
2023-11-04T03:51:25.938Z,7.05
2023-11-04T03:52:56.325Z,7.07
2023-11-04T03:54:30.077Z,7.08
2023-11-04T03:56:03.730Z,7.08
2023-11-04T03:57:47.351Z,7.11
2023-11-04T03:59:07.618Z,7.11
2023-11-04T04:00:48.250Z,7.08
2023-11-04T04:02:20.491Z,7.08
2023-11-04T04:03:55.857Z,7.08
2023-11-04T04:05:27.881Z,7.11
2023-11-04T04:07:00.163Z,7.10
2023-11-04T04:08:28.082Z,7.07
2023-11-04T04:09:50.813Z,7.14
2023-11-04T04:11:13.771Z,7.13
2023-11-04T04:12:45.926Z,7.11
2023-11-04T04:14:17.915Z,7.13
2023-11-04T04:15:38.225Z,7.14
2023-11-04T04:17:06.335Z,7.15
2023-11-04T04:18:38.397Z,7.16
2023-11-04T04:20:24.296Z,7.18
2023-11-04T04:21:56.457Z,7.19
2023-11-04T04:23:24.651Z,7.22
2023-11-04T04:24:56.793Z,7.21
2023-11-04T04:26:24.835Z,7.20
2023-11-04T04:28:08.779Z,7.20
2023-11-04T04:29:52.268Z,7.22
2023-11-04T04:31:37.816Z,7.21
2023-11-04T04:33:22.221Z,7.25
2023-11-04T04:34:58.971Z,7.25
2023-11-04T04:36:33.632Z,7.27
2023-11-04T04:37:56.344Z,7.29
2023-11-04T04:39:28.944Z,7.30
2023-11-04T04:41:12.890Z,7.29
2023-11-04T04:42:52.594Z,7.29
2023-11-04T04:44:15.500Z,7.30
2023-11-04T04:45:45.302Z,7.29
2023-11-04T04:47:13.160Z,7.28
2023-11-04T04:48:56.556Z,7.35
2023-11-04T04:50:37.347Z,7.33
2023-11-04T04:52:20.911Z,7.33
2023-11-04T04:53:54.870Z,7.33
2023-11-04T04:55:29.051Z,7.34
2023-11-04T04:57:03.278Z,7.34
2023-11-04T04:58:47.073Z,7.33
2023-11-04T05:00:30.352Z,7.34
2023-11-04T05:02:10.728Z,7.36
2023-11-04T05:03:54.944Z,7.36
2023-11-04T05:05:34.417Z,7.34
2023-11-04T05:06:54.802Z,7.39
2023-11-04T05:08:40.579Z,7.40
2023-11-04T05:10:15.796Z,7.37
2023-11-04T05:12:00.027Z,7.38
2023-11-04T05:13:43.722Z,7.40
2023-11-04T05:15:08.756Z,7.44
2023-11-04T05:16:43.196Z,7.40
2023-11-04T05:18:17.567Z,7.40
2023-11-04T05:20:01.130Z,7.39
2023-11-04T05:21:35.420Z,7.38
2023-11-04T05:23:21.856Z,7.39
2023-11-04T05:24:44.592Z,7.40
2023-11-04T05:26:16.942Z,7.39
2023-11-04T05:27:48.960Z,7.42
2023-11-04T05:29:23.540Z,7.41
2023-11-04T05:30:55.790Z,7.41
2023-11-04T05:32:23.783Z,7.41
2023-11-04T05:34:08.389Z,7.40
2023-11-04T05:35:52.159Z,7.39
2023-11-04T05:37:15.044Z,7.35
2023-11-04T05:38:58.248Z,7.35
2023-11-04T05:40:32.274Z,7.37
2023-11-04T05:42:07.170Z,7.38
2023-11-04T05:43:40.790Z,7.40
2023-11-04T05:45:27.757Z,7.41
2023-11-04T05:47:09.698Z,7.43
2023-11-04T05:48:41.882Z,7.41
2023-11-04T05:50:09.806Z,7.40
2023-11-04T05:51:48.466Z,7.37
2023-11-04T05:53:20.658Z,7.31
2023-11-04T05:54:48.721Z,7.36
2023-11-04T05:56:20.433Z,7.36
2023-11-04T05:57:43.902Z,7.37
2023-11-04T05:59:15.727Z,7.36
2023-11-04T06:00:36.614Z,7.32
2023-11-04T06:02:04.878Z,7.30
2023-11-04T06:03:48.583Z,7.27
2023-11-04T06:05:21.523Z,7.26
2023-11-04T06:06:56.192Z,7.23
2023-11-04T06:08:36.299Z,7.20
2023-11-04T06:10:12.353Z,7.23
2023-11-04T06:11:40.449Z,7.20
2023-11-04T06:13:03.564Z,7.22
2023-11-04T06:14:28.931Z,7.21
2023-11-04T06:15:56.932Z,7.20
2023-11-04T06:17:31.337Z,7.21
2023-11-04T06:19:03.239Z,7.21
2023-11-04T06:20:37.713Z,7.21
2023-11-04T06:22:21.261Z,7.19
2023-11-04T06:23:44.426Z,7.21
2023-11-04T06:25:33.198Z,7.20
2023-11-04T06:26:53.755Z,7.18
2023-11-04T06:28:18.665Z,7.20
2023-11-04T06:29:46.531Z,7.22
2023-11-04T06:31:18.771Z,7.21
2023-11-04T06:33:02.779Z,7.21
2023-11-04T06:34:25.584Z,7.21
2023-11-04T06:35:59.983Z,7.22
2023-11-04T06:37:43.501Z,7.22
2023-11-04T06:39:12.334Z,7.24
2023-11-04T06:40:47.880Z,7.28
2023-11-04T06:42:32.930Z,7.29
2023-11-04T06:44:04.969Z,7.24
2023-11-04T06:45:39.345Z,7.31
2023-11-04T06:47:18.376Z,7.33
2023-11-04T06:49:02.276Z,7.34
2023-11-04T06:50:46.649Z,7.35
2023-11-04T06:52:19.938Z,7.38
2023-11-04T06:54:03.912Z,7.41
2023-11-04T06:55:50.476Z,7.41
2023-11-04T06:57:34.014Z,7.39
2023-11-04T06:58:54.114Z,7.40
2023-11-04T07:00:37.833Z,7.41
2023-11-04T07:02:09.804Z,7.38
2023-11-04T07:03:42.094Z,7.49
2023-11-04T07:05:23.815Z,7.54
2023-11-04T07:06:59.037Z,7.56
2023-11-04T07:08:54.060Z,7.57
2023-11-04T07:10:38.213Z,7.61
2023-11-04T07:12:18.045Z,7.59
2023-11-04T07:14:01.814Z,7.58
2023-11-04T07:15:45.400Z,7.59
2023-11-04T07:17:20.810Z,7.61
2023-11-04T07:19:04.940Z,7.62
2023-11-04T07:20:27.718Z,7.65
2023-11-04T07:22:07.422Z,7.67
2023-11-04T07:23:39.452Z,7.71
2023-11-04T07:25:23.052Z,7.65
2023-11-04T07:26:56.545Z,7.74
2023-11-04T07:28:36.045Z,7.75
2023-11-04T07:29:56.786Z,7.77
2023-11-04T07:31:40.200Z,7.78
2023-11-04T07:33:19.684Z,7.77
2023-11-04T07:34:54.608Z,7.87
2023-11-04T07:36:38.133Z,7.90
2023-11-04T07:38:26.022Z,7.94
2023-11-04T07:40:10.658Z,7.97
2023-11-04T07:41:50.280Z,8.00
2023-11-04T07:43:33.790Z,8.03
2023-11-04T07:45:03.091Z,8.04
2023-11-04T07:46:23.779Z,8.09
2023-11-04T07:47:56.004Z,8.12
2023-11-04T07:49:25.621Z,8.16
2023-11-04T07:50:59.781Z,8.22
2023-11-04T07:52:53.833Z,8.20
2023-11-04T07:54:21.241Z,8.26
2023-11-04T07:55:56.272Z,8.27
2023-11-04T07:57:27.980Z,8.29
2023-11-04T07:59:20.435Z,8.30
2023-11-04T08:00:43.802Z,8.32
2023-11-04T08:02:27.675Z,8.40
2023-11-04T08:04:02.293Z,8.46
2023-11-04T08:05:45.635Z,8.51
2023-11-04T08:07:07.180Z,8.54
2023-11-04T08:08:32.233Z,8.59
2023-11-04T08:09:52.469Z,8.66
2023-11-04T08:11:16.335Z,8.71
2023-11-04T08:12:44.565Z,8.77
2023-11-04T08:14:32.687Z,8.80
2023-11-04T08:16:16.130Z,8.82
2023-11-04T08:17:59.658Z,8.87
2023-11-04T08:19:39.202Z,8.91
2023-11-04T08:21:01.358Z,8.96
2023-11-04T08:22:33.479Z,8.98
2023-11-04T08:24:07.542Z,8.98
2023-11-04T08:25:50.935Z,8.96
2023-11-04T08:27:25.277Z,8.94
2023-11-04T08:29:04.852Z,8.94
2023-11-04T08:30:36.594Z,8.99
2023-11-04T08:32:11.315Z,9.02
2023-11-04T08:33:34.236Z,9.03
2023-11-04T08:35:06.897Z,9.08
2023-11-04T08:36:50.808Z,9.15
2023-11-04T08:38:13.832Z,9.18
2023-11-04T08:39:38.956Z,9.19
2023-11-04T08:41:13.000Z,9.19
2023-11-04T08:42:45.618Z,9.20
2023-11-04T08:44:20.322Z,9.22
2023-11-04T08:45:42.663Z,9.26
2023-11-04T08:47:14.585Z,9.31
2023-11-04T08:48:49.601Z,9.37
2023-11-04T08:50:33.712Z,9.41
2023-11-04T08:52:17.267Z,9.44
2023-11-04T08:53:49.345Z,9.49
2023-11-04T08:55:19.573Z,9.52
2023-11-04T08:56:45.313Z,9.53
2023-11-04T08:58:15.355Z,9.54
2023-11-04T08:59:58.962Z,9.55
2023-11-04T09:01:30.721Z,9.60
2023-11-04T09:03:14.344Z,9.62
2023-11-04T09:04:55.954Z,9.68
2023-11-04T09:06:46.116Z,9.74
2023-11-04T09:08:30.066Z,9.81
2023-11-04T09:10:09.877Z,9.86
2023-11-04T09:11:48.834Z,9.96
2023-11-04T09:13:23.380Z,10.03
2023-11-04T09:15:08.997Z,10.07
2023-11-04T09:16:53.935Z,10.08
2023-11-04T09:18:37.631Z,10.13
2023-11-04T09:20:06.120Z,10.20
2023-11-04T09:21:29.592Z,10.26
2023-11-04T09:23:13.948Z,10.29
2023-11-04T09:24:46.293Z,10.32
2023-11-04T09:26:11.504Z,10.38
2023-11-04T09:27:46.946Z,10.42
2023-11-04T09:29:11.444Z,10.47
2023-11-04T09:30:55.280Z,10.56
2023-11-04T09:32:18.093Z,10.61
2023-11-04T09:33:52.490Z,10.62
2023-11-04T09:35:27.045Z,10.54
2023-11-04T09:37:10.728Z,10.56
2023-11-04T09:38:35.738Z,10.56
2023-11-04T09:40:03.655Z,10.59
2023-11-04T09:41:38.146Z,10.63
2023-11-04T09:43:22.086Z,10.69
2023-11-04T09:45:06.016Z,10.72
2023-11-04T09:46:49.833Z,10.78
2023-11-04T09:48:24.058Z,10.81
2023-11-04T09:49:46.954Z,10.82
2023-11-04T09:51:14.597Z,10.84
2023-11-04T09:52:58.535Z,10.90
2023-11-04T09:54:42.484Z,10.97
2023-11-04T09:56:26.389Z,11.04
2023-11-04T09:58:00.876Z,11.14
2023-11-04T09:59:35.087Z,11.18
2023-11-04T10:01:10.139Z,11.21
2023-11-04T10:02:33.097Z,11.26
2023-11-04T10:03:58.974Z,11.29
2023-11-04T10:05:31.286Z,11.34
2023-11-04T10:06:59.030Z,11.37
2023-11-04T10:08:31.113Z,11.37
2023-11-04T10:09:59.039Z,11.32
2023-11-04T10:11:33.873Z,11.27
2023-11-04T10:13:08.558Z,11.21
2023-11-04T10:14:40.375Z,11.12
2023-11-04T10:16:19.392Z,11.03
2023-11-04T10:18:02.945Z,10.96
2023-11-04T10:19:48.424Z,10.95
2023-11-04T10:21:34.090Z,10.85
2023-11-04T10:23:17.400Z,10.90
2023-11-04T10:25:01.380Z,10.85
2023-11-04T10:26:45.383Z,10.81
2023-11-04T10:28:19.231Z,10.84
2023-11-04T10:30:06.812Z,10.84
2023-11-04T10:31:27.178Z,10.84
2023-11-04T10:33:01.048Z,10.85
2023-11-04T10:34:44.802Z,10.90
2023-11-04T10:36:17.089Z,10.93
2023-11-04T10:37:51.118Z,10.96
2023-11-04T10:39:34.821Z,10.93
2023-11-04T10:41:06.793Z,10.91
2023-11-04T10:42:39.007Z,10.87
2023-11-04T10:44:13.076Z,10.89
2023-11-04T10:45:38.384Z,10.88
2023-11-04T10:47:18.213Z,10.87
2023-11-04T10:48:52.620Z,10.88
2023-11-04T10:50:42.114Z,10.90
2023-11-04T10:52:14.424Z,10.96
2023-11-04T10:53:42.207Z,11.02
2023-11-04T10:55:17.654Z,11.07
2023-11-04T10:56:50.182Z,11.16
2023-11-04T10:58:26.195Z,11.21
2023-11-04T10:59:53.913Z,11.33
2023-11-04T11:01:24.309Z,11.46
2023-11-04T11:02:58.560Z,11.67
2023-11-04T11:04:31.357Z,11.94
2023-11-04T11:06:02.315Z,12.16
2023-11-04T11:07:45.911Z,12.23
2023-11-04T11:09:19.538Z,12.21
2023-11-04T11:10:40.023Z,12.18
2023-11-04T11:12:25.497Z,12.18
2023-11-04T11:13:45.924Z,12.10
2023-11-04T11:15:21.123Z,12.07
2023-11-04T11:16:43.467Z,12.06
2023-11-04T11:18:17.777Z,12.05
2023-11-04T11:19:52.075Z,12.05
2023-11-04T11:21:26.082Z,12.09
2023-11-04T11:22:57.424Z,12.15
2023-11-04T11:24:20.996Z,12.37
2023-11-04T11:25:55.196Z,12.52
2023-11-04T11:27:23.030Z,12.50
2023-11-04T11:28:45.700Z,12.44
2023-11-04T11:30:10.454Z,12.36
2023-11-04T11:31:54.335Z,12.30
2023-11-04T11:33:18.895Z,12.24
2023-11-04T11:34:51.001Z,12.20
2023-11-04T11:36:32.243Z,12.18
2023-11-04T11:38:06.775Z,12.17
2023-11-04T11:39:38.713Z,12.13
2023-11-04T11:41:22.614Z,12.09
2023-11-04T11:42:45.980Z,12.02
2023-11-04T11:44:25.418Z,11.97
2023-11-04T11:46:06.957Z,11.93
2023-11-04T11:47:40.653Z,11.88
2023-11-04T11:49:01.254Z,11.83
2023-11-04T11:50:41.664Z,11.83
2023-11-04T11:52:14.006Z,11.84
2023-11-04T11:53:46.473Z,11.81
2023-11-04T11:55:29.890Z,11.82
2023-11-04T11:57:13.411Z,11.79
2023-11-04T11:58:48.033Z,11.73
2023-11-04T12:00:24.853Z,11.74
2023-11-04T12:01:52.468Z,11.79
2023-11-04T12:03:26.657Z,11.80
2023-11-04T12:04:47.446Z,11.81
2023-11-04T12:06:19.467Z,11.79
2023-11-04T12:08:03.294Z,11.79
2023-11-04T12:09:24.357Z,11.82
2023-11-04T12:10:59.016Z,11.91
2023-11-04T12:12:33.794Z,12.01
2023-11-04T12:14:27.401Z,12.07
2023-11-04T12:16:12.449Z,12.39
2023-11-04T12:17:45.079Z,12.62
2023-11-04T12:19:12.893Z,12.74
2023-11-04T12:20:45.346Z,12.78
2023-11-04T12:22:08.561Z,12.93
2023-11-04T12:23:40.413Z,13.19
2023-11-04T12:25:15.046Z,13.57
2023-11-04T12:26:54.620Z,14.06
2023-11-04T12:28:17.316Z,14.47
2023-11-04T12:30:01.355Z,14.87
2023-11-04T12:31:26.989Z,15.28
2023-11-04T12:33:10.529Z,15.56
2023-11-04T12:34:49.896Z,15.57
2023-11-04T12:36:19.912Z,15.32
2023-11-04T12:37:47.525Z,14.98
2023-11-04T12:39:10.497Z,14.72
2023-11-04T12:40:31.784Z,14.67
2023-11-04T12:42:07.310Z,14.49
2023-11-04T12:43:47.661Z,14.21
2023-11-04T12:45:22.196Z,13.90
2023-11-04T12:46:54.715Z,13.97
2023-11-04T12:48:16.986Z,13.81
2023-11-04T12:49:56.033Z,13.67
2023-11-04T12:51:23.643Z,13.61
2023-11-04T12:52:55.355Z,13.85
2023-11-04T12:54:15.632Z,14.11
2023-11-04T12:55:47.410Z,14.47
2023-11-04T12:57:15.388Z,14.83
2023-11-04T12:58:54.799Z,15.14
2023-11-04T13:00:26.851Z,15.42
2023-11-04T13:02:05.897Z,15.68
2023-11-04T13:03:31.809Z,15.81
2023-11-04T13:05:04.345Z,15.81
2023-11-04T13:06:46.416Z,15.51
2023-11-04T13:08:21.204Z,15.58
2023-11-04T13:09:51.320Z,15.78
2023-11-04T13:11:25.064Z,15.96
2023-11-04T13:12:56.650Z,16.17
2023-11-04T13:14:29.703Z,16.30
2023-11-04T13:15:50.368Z,15.98
2023-11-04T13:17:23.185Z,15.85
2023-11-04T13:18:55.395Z,15.53
2023-11-04T13:20:17.779Z,15.25
2023-11-04T13:21:56.960Z,15.13
2023-11-04T13:23:44.952Z,14.94
2023-11-04T13:25:19.537Z,14.67
2023-11-04T13:26:52.221Z,14.48
2023-11-04T13:28:22.206Z,14.70
2023-11-04T13:29:54.693Z,14.99
2023-11-04T13:31:38.619Z,15.33
2023-11-04T13:33:10.484Z,15.64
2023-11-04T13:34:45.394Z,15.76
2023-11-04T13:36:28.704Z,15.84
2023-11-04T13:38:00.681Z,15.79
2023-11-04T13:39:36.588Z,15.76
2023-11-04T13:41:11.522Z,15.73
2023-11-04T13:42:32.449Z,15.74
2023-11-04T13:44:04.467Z,15.85
2023-11-04T13:45:44.151Z,15.98
2023-11-04T13:47:18.801Z,16.02
2023-11-04T13:48:53.953Z,15.95
2023-11-04T13:50:26.018Z,15.83
2023-11-04T13:51:57.911Z,15.63
2023-11-04T13:53:29.811Z,15.38
2023-11-04T13:55:15.366Z,15.26
2023-11-04T13:56:58.834Z,15.09
2023-11-04T13:58:32.130Z,14.84
2023-11-04T14:00:13.004Z,14.70
2023-11-04T14:01:47.353Z,14.54
2023-11-04T14:03:30.971Z,14.42
2023-11-04T14:05:05.191Z,14.29
2023-11-04T14:06:28.312Z,14.21
2023-11-04T14:08:01.831Z,14.05
2023-11-04T14:09:33.983Z,13.85
2023-11-04T14:11:06.001Z,13.62
2023-11-04T14:12:40.154Z,13.39
2023-11-04T14:14:14.624Z,13.23
2023-11-04T14:15:46.938Z,13.00
2023-11-04T14:17:12.504Z,12.83
2023-11-04T14:18:56.269Z,12.61
2023-11-04T14:20:32.289Z,12.44
2023-11-04T14:22:15.861Z,12.32
2023-11-04T14:23:38.907Z,12.22
2023-11-04T14:25:19.454Z,12.12
2023-11-04T14:26:46.840Z,12.01
2023-11-04T14:28:16.967Z,11.93
2023-11-04T14:29:51.349Z,11.81
2023-11-04T14:31:25.559Z,11.71
2023-11-04T14:32:45.679Z,11.64
2023-11-04T14:34:29.098Z,11.56
2023-11-04T14:36:08.519Z,11.44
2023-11-04T14:37:42.705Z,11.35
2023-11-04T14:39:26.263Z,11.29
2023-11-04T14:40:48.020Z,11.21
2023-11-04T14:42:20.358Z,11.15
2023-11-04T14:43:48.405Z,11.08
2023-11-04T14:45:18.240Z,11.03
2023-11-04T14:46:46.103Z,10.96
2023-11-04T14:48:20.356Z,10.91
2023-11-04T14:49:52.379Z,10.86
2023-11-04T14:51:22.604Z,10.81
2023-11-04T14:52:45.390Z,10.74
2023-11-04T14:54:28.866Z,10.69
2023-11-04T14:56:01.400Z,10.64
2023-11-04T14:57:50.340Z,10.56
2023-11-04T14:59:22.352Z,10.51
2023-11-04T15:00:55.459Z,10.46
2023-11-04T15:02:23.001Z,10.42
2023-11-04T15:03:55.401Z,10.38
2023-11-04T15:05:30.520Z,10.32
2023-11-04T15:07:09.779Z,10.27
2023-11-04T15:08:32.721Z,10.22
2023-11-04T15:10:04.607Z,10.18
2023-11-04T15:11:36.906Z,10.14
2023-11-04T15:13:13.382Z,10.10
2023-11-04T15:14:47.442Z,10.06
2023-11-04T15:16:32.940Z,10.03
2023-11-04T15:17:55.913Z,9.97
2023-11-04T15:19:41.133Z,9.88
2023-11-04T15:21:10.959Z,9.89
2023-11-04T15:22:47.139Z,9.85
2023-11-04T15:24:25.992Z,9.81
2023-11-04T15:25:56.421Z,9.77
2023-11-04T15:27:40.217Z,9.71
2023-11-04T15:29:14.972Z,9.68
2023-11-04T15:30:58.683Z,9.66
2023-11-04T15:32:22.950Z,9.61
2023-11-04T15:33:53.428Z,9.56
2023-11-04T15:35:26.785Z,9.53
2023-11-04T15:37:06.008Z,9.49
2023-11-04T15:38:26.589Z,9.44
2023-11-04T15:39:58.694Z,9.43
2023-11-04T15:41:30.403Z,9.43
2023-11-04T15:43:04.677Z,9.41
2023-11-04T15:44:38.953Z,9.37
2023-11-04T15:45:59.323Z,9.36
2023-11-04T15:47:31.580Z,9.28
2023-11-04T15:49:15.317Z,9.31
2023-11-04T15:50:54.524Z,9.27
2023-11-04T15:52:19.932Z,9.23
2023-11-04T15:53:40.456Z,9.21
2023-11-04T15:55:03.493Z,9.19
2023-11-04T15:56:31.473Z,9.17
2023-11-04T15:58:06.238Z,9.16
2023-11-04T15:59:31.411Z,9.14
2023-11-04T16:01:05.900Z,9.14
2023-11-04T16:02:27.391Z,9.12
2023-11-04T16:03:48.386Z,9.12
2023-11-04T16:05:18.901Z,9.10
2023-11-04T16:06:43.499Z,9.05
2023-11-04T16:08:04.603Z,9.04
2023-11-04T16:09:49.675Z,8.99
2023-11-04T16:11:20.877Z,8.96
2023-11-04T16:12:44.376Z,8.96
2023-11-04T16:14:18.492Z,8.96
2023-11-04T16:15:53.081Z,8.97
2023-11-04T16:17:15.405Z,8.94
2023-11-04T16:18:38.107Z,8.94
2023-11-04T16:20:10.316Z,8.92
2023-11-04T16:21:33.088Z,8.87
2023-11-04T16:23:05.584Z,8.88
2023-11-04T16:24:26.562Z,8.85
2023-11-04T16:25:49.533Z,8.82
2023-11-04T16:27:14.684Z,8.79
2023-11-04T16:28:58.212Z,8.76
2023-11-04T16:30:30.917Z,8.73
2023-11-04T16:32:01.231Z,8.72
2023-11-04T16:33:23.655Z,8.69
2023-11-04T16:34:57.577Z,8.68
2023-11-04T16:36:25.299Z,8.68
2023-11-04T16:37:57.520Z,8.67
2023-11-04T16:39:41.211Z,8.64
2023-11-04T16:41:13.104Z,8.58
2023-11-04T16:42:41.235Z,8.59
2023-11-04T16:44:13.301Z,8.57
2023-11-04T16:45:52.824Z,8.51
2023-11-04T16:47:27.614Z,8.55
2023-11-04T16:48:59.809Z,8.52
2023-11-04T16:50:31.590Z,8.49
2023-11-04T16:52:02.999Z,8.46
2023-11-04T16:53:23.806Z,8.42
2023-11-04T16:54:46.983Z,8.38
2023-11-04T16:56:22.056Z,8.35
2023-11-04T16:57:43.965Z,8.34
2023-11-04T16:59:12.164Z,8.33
2023-11-04T17:00:51.390Z,8.32
2023-11-04T17:02:25.479Z,8.31
2023-11-04T17:03:48.454Z,8.29
2023-11-04T17:05:29.631Z,8.29
2023-11-04T17:07:04.134Z,8.27
2023-11-04T17:08:32.290Z,8.25
2023-11-04T17:10:05.044Z,8.23
2023-11-04T17:11:38.970Z,8.17
2023-11-04T17:13:23.061Z,8.15
2023-11-04T17:15:07.369Z,8.11
2023-11-04T17:16:34.985Z,8.11
2023-11-04T17:17:55.416Z,8.09
2023-11-04T17:19:41.164Z,8.05
2023-11-04T17:21:01.430Z,7.88
2023-11-04T17:22:35.632Z,8.01
2023-11-04T17:24:07.549Z,7.98
2023-11-04T17:25:39.663Z,7.95
2023-11-04T17:27:12.254Z,7.93
2023-11-04T17:28:40.139Z,7.90
2023-11-04T17:30:14.718Z,7.89
2023-11-04T17:31:35.101Z,7.86
2023-11-04T17:33:04.997Z,7.84
2023-11-04T17:34:28.160Z,7.75
2023-11-04T17:36:07.857Z,7.82
2023-11-04T17:37:51.832Z,7.80
2023-11-04T17:39:26.004Z,7.78
2023-11-04T17:40:51.085Z,7.76
2023-11-04T17:42:18.855Z,7.78
2023-11-04T17:43:50.900Z,7.77
2023-11-04T17:45:24.151Z,7.77
2023-11-04T17:47:03.911Z,7.76
2023-11-04T17:48:25.344Z,7.75
2023-11-04T17:49:59.831Z,7.75
2023-11-04T17:51:22.270Z,7.76
2023-11-04T17:52:43.901Z,7.75
2023-11-04T17:54:27.201Z,7.67
2023-11-04T17:55:48.230Z,7.72
2023-11-04T17:57:27.208Z,7.70
2023-11-04T17:58:48.802Z,7.68
2023-11-04T18:00:29.932Z,7.68
2023-11-04T18:02:04.960Z,7.65
2023-11-04T18:03:25.119Z,7.62
2023-11-04T18:04:59.984Z,7.59
2023-11-04T18:06:43.976Z,7.57
2023-11-04T18:08:08.199Z,7.54
2023-11-04T18:09:53.562Z,7.53
2023-11-04T18:11:25.291Z,7.52
2023-11-04T18:12:57.689Z,7.52
2023-11-04T18:14:18.410Z,7.51
2023-11-04T18:15:38.889Z,7.50
2023-11-04T18:17:04.470Z,7.49
2023-11-04T18:18:48.861Z,7.47
2023-11-04T18:20:23.078Z,7.44
2023-11-04T18:21:58.838Z,7.34
2023-11-04T18:23:22.300Z,7.37
2023-11-04T18:24:50.205Z,7.36
2023-11-04T18:26:22.172Z,7.37
2023-11-04T18:27:52.942Z,7.37
2023-11-04T18:29:33.139Z,7.37
2023-11-04T18:31:05.279Z,7.36
2023-11-04T18:32:35.148Z,7.36
2023-11-04T18:33:58.343Z,7.36
2023-11-04T18:35:32.499Z,7.35
2023-11-04T18:37:03.309Z,7.34
2023-11-04T18:38:23.752Z,7.32
2023-11-04T18:39:56.349Z,7.29
2023-11-04T18:41:29.002Z,7.28
2023-11-04T18:43:08.588Z,7.26
2023-11-04T18:44:47.878Z,7.27
2023-11-04T18:46:21.935Z,7.25
2023-11-04T18:47:50.291Z,7.24
2023-11-04T18:49:22.306Z,7.20
2023-11-04T18:50:50.490Z,7.19
2023-11-04T18:52:21.041Z,7.19
2023-11-04T18:53:48.745Z,7.18
2023-11-04T18:55:20.639Z,7.19
2023-11-04T18:56:45.288Z,7.18
2023-11-04T18:58:08.305Z,7.18
2023-11-04T18:59:28.845Z,7.19
2023-11-04T19:01:01.229Z,7.18
2023-11-04T19:02:33.449Z,7.16
2023-11-04T19:04:08.691Z,7.14
2023-11-04T19:05:29.638Z,7.12
2023-11-04T19:07:08.997Z,7.07
2023-11-04T19:08:42.909Z,7.07
2023-11-04T19:10:03.701Z,6.99
2023-11-04T19:11:44.735Z,7.05
2023-11-04T19:13:15.463Z,7.04
2023-11-04T19:14:43.600Z,7.02
2023-11-04T19:16:35.458Z,7.00
2023-11-04T19:18:07.803Z,6.94
2023-11-04T19:19:46.919Z,6.94
2023-11-04T19:21:10.685Z,6.93
2023-11-04T19:22:43.460Z,6.92
2023-11-04T19:24:04.258Z,6.89
2023-11-04T19:25:26.627Z,6.87
2023-11-04T19:26:52.461Z,6.85
2023-11-04T19:28:26.973Z,6.85
2023-11-04T19:29:47.884Z,6.85
2023-11-04T19:31:15.645Z,6.84
2023-11-04T19:32:36.514Z,6.83
2023-11-04T19:34:09.032Z,6.82
2023-11-04T19:35:32.459Z,6.79
2023-11-04T19:36:56.808Z,6.76
2023-11-04T19:38:19.413Z,6.73
2023-11-04T19:39:42.634Z,6.70
2023-11-04T19:41:05.868Z,6.67
2023-11-04T19:42:26.420Z,6.64
2023-11-04T19:43:47.069Z,6.62
2023-11-04T19:45:11.923Z,6.60
2023-11-04T19:46:44.230Z,6.58
2023-11-04T19:48:07.542Z,6.57
2023-11-04T19:49:30.547Z,6.56
2023-11-04T19:51:01.389Z,6.56
2023-11-04T19:52:26.626Z,6.57
2023-11-04T19:53:48.242Z,6.57
2023-11-04T19:55:20.124Z,6.58
2023-11-04T19:56:40.793Z,6.52
2023-11-04T19:58:04.537Z,6.57
2023-11-04T19:59:27.485Z,6.54
2023-11-04T20:00:48.012Z,6.53
2023-11-04T20:02:08.481Z,6.52
2023-11-04T20:03:29.481Z,6.51
2023-11-04T20:05:22.142Z,6.49
2023-11-04T20:06:42.687Z,6.45
2023-11-04T20:08:03.438Z,6.44
2023-11-04T20:09:27.362Z,6.44
2023-11-04T20:10:50.522Z,6.43
2023-11-04T20:12:22.406Z,6.42
2023-11-04T20:13:56.923Z,6.41
2023-11-04T20:15:17.127Z,6.41
2023-11-04T20:16:49.070Z,6.40
2023-11-04T20:18:22.973Z,6.40
2023-11-04T20:19:57.618Z,6.37
2023-11-04T20:21:22.588Z,6.37
2023-11-04T20:22:45.494Z,6.37
2023-11-04T20:24:08.386Z,6.36
2023-11-04T20:25:51.950Z,6.37
2023-11-04T20:27:30.740Z,6.36
2023-11-04T20:29:05.885Z,6.35